Weirwood, Virginia
Current Conditions -  °F | °C
As of 5:55 PM on Tuesday 21 Oct 2014 (Local Time) from KMFV Reporting Station
Scattered Clouds Scattered Clouds  
Wind Chill: 63°   Ceiling: Unl
Heat Index: 63°   Visibility: 10mi
Dew Point: 52°   Wind: 0mph
Humidity: 68%   Direction: NA
Pressure: 29.81"   Gusts: NA
Location:  37.4737°N, 75.8516°W
Report Text: KMFV 212155Z AUTO 00000KT 10SM SCT100 17/11 A2981 RMK AO2
Loading
Personal Weather Stations






























Interactive Weather Map
Tropical Storm Tracking
New forecast layout! Learn more

10-Day Weather Forecast

Advertisements
Track Severe Weather on mobile